createdAt,value
2023-02-18T00:01:18.095Z,22.8
2023-02-18T00:06:56.438Z,23
2023-02-18T00:12:18.372Z,23.3
2023-02-18T00:17:55.262Z,23.6
2023-02-18T00:23:01.576Z,23.3
2023-02-18T00:28:38.590Z,22.9
2023-02-18T00:34:00.253Z,22.5
2023-02-18T00:39:37.064Z,22.4
2023-02-18T00:45:14.381Z,22.8
2023-02-18T00:50:51.887Z,23.4
2023-02-18T00:56:28.929Z,23.6
2023-02-18T01:02:05.596Z,23.3
2023-02-18T01:07:42.835Z,22.7
2023-02-18T01:13:21.217Z,22.4
2023-02-18T01:18:58.254Z,22.6
2023-02-18T01:24:35.410Z,23.2
2023-02-18T01:30:12.339Z,23.7
2023-02-18T01:35:50.079Z,23.4
2023-02-18T01:41:27.928Z,22.9
2023-02-18T01:47:05.385Z,22.6
2023-02-18T01:52:26.900Z,22.3
2023-02-18T01:58:05.568Z,22.2
2023-02-18T02:03:43.052Z,22.5
2023-02-18T02:09:19.861Z,23.1
2023-02-18T02:14:56.445Z,23.6
2023-02-18T02:20:33.327Z,23.7
2023-02-18T02:26:09.990Z,23.7
2023-02-18T02:31:47.763Z,23.8
2023-02-18T02:37:24.871Z,23.4
2023-02-18T02:43:02.543Z,22.9
2023-02-18T02:48:40.973Z,22.6
2023-02-18T02:54:18.075Z,22.3
2023-02-18T02:59:55.915Z,22.4
2023-02-18T03:05:33.145Z,22.9
2023-02-18T03:11:10.796Z,23.4
2023-02-18T03:16:48.639Z,23.6
2023-02-18T03:22:26.059Z,23.3
2023-02-18T03:28:04.389Z,22.7
2023-02-18T03:33:42.195Z,22.5
2023-02-18T03:39:19.148Z,22.6
2023-02-18T03:44:40.680Z,23.2
2023-02-18T03:50:01.677Z,23.6
2023-02-18T03:55:39.254Z,23.4
2023-02-18T04:01:16.185Z,23
2023-02-18T04:06:54.093Z,22.6
2023-02-18T04:12:30.846Z,22.5
2023-02-18T04:18:08.191Z,22.9
2023-02-18T04:23:45.129Z,23.4
2023-02-18T04:29:07.809Z,23.6
2023-02-18T04:34:48.456Z,23.3
2023-02-18T04:40:27.096Z,22.8
2023-02-18T04:46:04.120Z,22.5
2023-02-18T04:51:41.758Z,22.6
2023-02-18T04:57:18.123Z,23
2023-02-18T05:02:54.847Z,23.1
2023-02-18T05:08:01.426Z,23.3
2023-02-18T05:13:22.723Z,23.7
2023-02-18T05:19:00.876Z,23.4
2023-02-18T05:24:24.445Z,23
2023-02-18T05:30:01.038Z,22.6
2023-02-18T05:35:39.504Z,22.4
2023-02-18T05:41:17.336Z,22.3
2023-02-18T05:46:24.647Z,22.5
2023-02-18T05:52:02.617Z,23
2023-02-18T05:57:38.912Z,23.6
2023-02-18T06:03:00.284Z,23.3
2023-02-18T06:08:39.269Z,22.8
2023-02-18T06:14:01.079Z,22.4
2023-02-18T06:19:38.859Z,22.2
2023-02-18T06:25:15.990Z,22.1
2023-02-18T06:30:54.286Z,22.4
2023-02-18T06:36:32.420Z,23.1
2023-02-18T06:42:10.902Z,23.4
2023-02-18T06:47:48.363Z,23.1
2023-02-18T06:53:27.717Z,22.6
2023-02-18T06:58:34.398Z,22.3
2023-02-18T07:04:12.009Z,22.4
2023-02-18T07:09:49.771Z,22.9
2023-02-18T07:15:27.175Z,23.4
2023-02-18T07:21:04.469Z,23.2
2023-02-18T07:26:42.305Z,22.8
2023-02-18T07:32:03.555Z,22.4
2023-02-18T07:37:40.640Z,22.2
2023-02-18T07:43:17.997Z,21.9
2023-02-18T07:48:55.200Z,22.2
2023-02-18T07:54:33.666Z,22.7
2023-02-18T08:00:11.318Z,22.7
2023-02-18T08:05:48.765Z,22.4
2023-02-18T08:11:35.767Z,22.3
2023-02-18T08:17:13.245Z,22.2
2023-02-18T08:22:50.598Z,22.1
2023-02-18T08:28:40.039Z,22.4
2023-02-18T08:34:18.331Z,22.6
2023-02-18T08:39:49.224Z,22.3
2023-02-18T08:45:25.661Z,22.1
2023-02-18T08:52:33.103Z,22.1
2023-02-18T08:58:10.929Z,21.9
2023-02-18T09:03:35.628Z,22.4
2023-02-18T09:08:57.072Z,22.4
2023-02-18T09:14:33.621Z,22.2
2023-02-18T09:20:10.863Z,22
2023-02-18T09:25:48.214Z,22
2023-02-18T09:31:26.695Z,21.8
2023-02-18T09:37:22.253Z,22.3
2023-02-18T09:42:45.871Z,22.3
2023-02-18T09:48:24.750Z,22.1
2023-02-18T09:54:03.503Z,22
2023-02-18T09:59:42.776Z,21.9
2023-02-18T10:05:22.156Z,21.8
2023-02-18T10:11:00.509Z,22.3
2023-02-18T10:16:22.057Z,22.3
2023-02-18T10:22:04.575Z,22.1
2023-02-18T10:27:41.626Z,22
2023-02-18T10:33:04.226Z,21.9
2023-02-18T10:38:40.917Z,21.8
2023-02-18T10:44:01.962Z,22.3
2023-02-18T10:49:38.229Z,22.3
2023-02-18T10:55:16.040Z,22.1
2023-02-18T11:00:53.067Z,22
2023-02-18T11:06:31.116Z,21.9
2023-02-18T11:11:57.065Z,21.8
2023-02-18T11:17:27.619Z,22.3
2023-02-18T11:22:33.862Z,22.1
2023-02-18T11:27:56.045Z,22
2023-02-18T11:33:18.577Z,21.9
2023-02-18T11:38:55.957Z,21.9
2023-02-18T11:44:18.211Z,21.8
2023-02-18T11:49:54.090Z,22.3
2023-02-18T11:55:15.533Z,22.3
2023-02-18T12:00:53.440Z,22.1
2023-02-18T12:06:00.833Z,22
2023-02-18T12:11:37.508Z,21.9
2023-02-18T12:17:17.319Z,21.8
2023-02-18T12:22:56.026Z,22.1
2023-02-18T12:28:33.621Z,22.3
2023-02-18T12:33:56.585Z,22
2023-02-18T12:39:36.001Z,21.9
2023-02-18T12:45:12.630Z,21.9
2023-02-18T12:50:49.897Z,21.8
2023-02-18T12:56:27.276Z,22
2023-02-18T13:01:33.061Z,22.3
2023-02-18T13:06:55.852Z,22.1
2023-02-18T13:12:17.533Z,22
2023-02-18T13:17:38.971Z,21.9
2023-02-18T13:23:18.066Z,21.9
2023-02-18T13:28:42.624Z,21.8
2023-02-18T13:34:20.921Z,22.4
2023-02-18T13:39:58.401Z,22.2
2023-02-18T13:45:35.250Z,22.1
2023-02-18T13:51:12.454Z,21.9
2023-02-18T13:56:49.440Z,21.8
2023-02-18T14:02:27.730Z,21.8
2023-02-18T14:08:05.180Z,21.8
2023-02-18T14:13:42.432Z,22.4
2023-02-18T14:19:19.671Z,22.2
2023-02-18T14:24:57.067Z,22
2023-02-18T14:30:35.237Z,21.8
2023-02-18T14:36:03.226Z,21.8
2023-02-18T14:41:41.377Z,21.7
2023-02-18T14:47:03.329Z,21.7
2023-02-18T14:52:39.585Z,21.6
2023-02-18T14:58:16.606Z,21.6
2023-02-18T15:03:54.889Z,21.5
2023-02-18T15:09:32.722Z,21.4
2023-02-18T15:14:55.901Z,21.4
2023-02-18T15:20:37.020Z,21.3
2023-02-18T15:26:15.661Z,21.3
2023-02-18T15:37:16.523Z,21.1
2023-02-18T15:42:53.510Z,20.9
2023-02-18T15:48:33.471Z,20.9
2023-02-18T15:54:03.635Z,20.8
2023-02-18T15:59:42.116Z,20.7
2023-02-18T16:05:21.945Z,20.6
2023-02-18T16:10:28.427Z,20.5
2023-02-18T16:15:36.070Z,20.4
2023-02-18T16:21:11.462Z,20.3
2023-02-18T16:26:33.570Z,20.3
2023-02-18T16:32:12.250Z,20.2
2023-02-18T16:37:46.854Z,20.1
2023-02-18T16:43:25.344Z,20.1
2023-02-18T16:48:47.905Z,19.9
2023-02-18T16:54:27.244Z,19.9
2023-02-18T17:00:04.853Z,19.8
2023-02-18T17:05:59.570Z,19.8
2023-02-18T17:11:21.228Z,19.7
2023-02-18T17:16:59.680Z,19.8
2023-02-18T17:22:39.377Z,20.1
2023-02-18T17:28:17.157Z,20.7
2023-02-18T17:33:56.229Z,21.4
2023-02-18T17:39:36.404Z,21.3
2023-02-18T17:44:57.959Z,21.4
2023-02-18T17:50:39.475Z,21.8
2023-02-18T17:56:01.842Z,21.3
2023-02-18T18:01:23.863Z,21.3
2023-02-18T18:06:45.812Z,21.9
2023-02-18T18:12:22.789Z,21.7
2023-02-18T18:18:00.648Z,21.5
2023-02-18T18:23:38.298Z,21.4
2023-02-18T18:29:15.861Z,21.3
2023-02-18T18:34:52.210Z,21
2023-02-18T18:40:14.283Z,21.5
2023-02-18T18:45:36.325Z,22
2023-02-18T18:51:14.989Z,21.8
2023-02-18T18:56:54.101Z,21.6
2023-02-18T19:02:34.126Z,21.4
2023-02-18T19:08:11.793Z,21.4
2023-02-18T19:13:49.716Z,21.2
2023-02-18T19:19:26.826Z,21.8
2023-02-18T19:25:04.273Z,21.9
2023-02-18T19:30:42.345Z,21.7
2023-02-18T19:36:19.607Z,21.7
2023-02-18T19:41:56.482Z,22.3
2023-02-18T19:47:34.272Z,22
2023-02-18T19:53:11.703Z,21.6
2023-02-18T19:58:49.165Z,22
2023-02-18T20:04:12.006Z,22.3
2023-02-18T20:09:48.671Z,22
2023-02-18T20:15:26.526Z,21.8
2023-02-18T20:21:04.389Z,21.8
2023-02-18T20:27:14.343Z,22.4
2023-02-18T20:32:47.672Z,22.1
2023-02-18T20:38:25.754Z,21.9
2023-02-18T20:44:28.358Z,21.8
2023-02-18T20:49:50.634Z,21.6
2023-02-18T20:55:28.226Z,21.9
2023-02-18T21:01:05.850Z,22.4
2023-02-18T21:06:45.152Z,22.1
2023-02-18T21:12:22.559Z,21.9
2023-02-18T21:18:00.208Z,21.9
2023-02-18T21:23:38.715Z,22.4
2023-02-18T21:29:01.164Z,22.2
2023-02-18T21:34:39.471Z,21.9
2023-02-18T21:40:16.213Z,21.8
2023-02-18T21:45:49.043Z,21.7
2023-02-18T21:51:27.746Z,22.1
2023-02-18T21:57:11.423Z,22.4
2023-02-18T22:03:07.555Z,22.1
2023-02-18T22:08:45.171Z,21.9
2023-02-18T22:14:06.255Z,21.8
2023-02-18T22:19:44.771Z,22.3
2023-02-18T22:25:22.663Z,23
2023-02-18T22:30:59.816Z,23.5
2023-02-18T22:36:40.319Z,23.1
2023-02-18T22:42:18.548Z,22.9
2023-02-18T22:47:55.774Z,23.5
2023-02-18T22:53:33.125Z,23.7
2023-02-18T22:59:09.734Z,23.2
2023-02-18T23:04:46.696Z,23.2
2023-02-18T23:10:08.685Z,23.8
2023-02-18T23:15:48.188Z,23.9
2023-02-18T23:21:09.136Z,23.4
2023-02-18T23:26:45.967Z,23.2
2023-02-18T23:32:24.528Z,23.8
2023-02-18T23:37:46.531Z,23.9
2023-02-18T23:43:24.027Z,23.6
2023-02-18T23:49:01.188Z,23.3
2023-02-18T23:54:38.225Z,23.8
